sensor_id;sensor_type;location;lat;lon;timestamp;pressure;altitude;pressure_sealevel;temperature;humidity
47220;BME280;32961;51.936;4.788;2023-06-10T00:01:09;101446.38;;;22.67;51.86
47220;BME280;32961;51.936;4.788;2023-06-10T00:03:37;101438.25;;;22.58;52.00
47220;BME280;32961;51.936;4.788;2023-06-10T00:06:07;101443.34;;;22.48;52.51
47220;BME280;32961;51.936;4.788;2023-06-10T00:08:34;101449.88;;;22.34;52.71
47220;BME280;32961;51.936;4.788;2023-06-10T00:11:04;101443.91;;;22.23;52.45
47220;BME280;32961;51.936;4.788;2023-06-10T00:13:31;101444.94;;;22.22;52.73
47220;BME280;32961;51.936;4.788;2023-06-10T00:15:59;101452.38;;;22.15;52.87
47220;BME280;32961;51.936;4.788;2023-06-10T00:18:27;101453.66;;;22.12;52.98
47220;BME280;32961;51.936;4.788;2023-06-10T00:20:55;101452.53;;;22.07;53.31
47220;BME280;32961;51.936;4.788;2023-06-10T00:23:25;101449.78;;;22.07;53.46
47220;BME280;32961;51.936;4.788;2023-06-10T00:25:55;101452.97;;;22.04;53.64
47220;BME280;32961;51.936;4.788;2023-06-10T00:28:23;101450.16;;;21.97;53.94
47220;BME280;32961;51.936;4.788;2023-06-10T00:30:51;101458.00;;;21.87;54.26
47220;BME280;32961;51.936;4.788;2023-06-10T00:33:19;101455.00;;;21.88;53.83
47220;BME280;32961;51.936;4.788;2023-06-10T00:35:47;101453.50;;;21.79;54.01
47220;BME280;32961;51.936;4.788;2023-06-10T00:38:15;101450.28;;;21.75;53.86
47220;BME280;32961;51.936;4.788;2023-06-10T00:40:44;101451.28;;;21.68;54.11
47220;BME280;32961;51.936;4.788;2023-06-10T00:43:12;101447.44;;;21.62;54.02
47220;BME280;32961;51.936;4.788;2023-06-10T00:45:40;101454.88;;;21.61;53.95
47220;BME280;32961;51.936;4.788;2023-06-10T00:48:08;101450.13;;;21.55;54.33
47220;BME280;32961;51.936;4.788;2023-06-10T00:50:36;101443.56;;;21.56;54.14
47220;BME280;32961;51.936;4.788;2023-06-10T00:53:06;101444.09;;;21.45;54.55
47220;BME280;32961;51.936;4.788;2023-06-10T00:55:34;101450.47;;;21.45;54.41
47220;BME280;32961;51.936;4.788;2023-06-10T00:58:04;101444.72;;;21.40;54.71
47220;BME280;32961;51.936;4.788;2023-06-10T01:00:32;101452.53;;;21.37;54.59
47220;BME280;32961;51.936;4.788;2023-06-10T01:03:00;101457.22;;;21.36;54.72
47220;BME280;32961;51.936;4.788;2023-06-10T01:05:28;101438.41;;;21.25;54.48
47220;BME280;32961;51.936;4.788;2023-06-10T01:08:01;101447.16;;;21.28;54.82
47220;BME280;32961;51.936;4.788;2023-06-10T01:10:34;101449.53;;;21.31;54.60
47220;BME280;32961;51.936;4.788;2023-06-10T01:13:07;101445.44;;;21.27;54.60
47220;BME280;32961;51.936;4.788;2023-06-10T01:15:38;101447.13;;;21.22;54.85
47220;BME280;32961;51.936;4.788;2023-06-10T01:18:07;101451.78;;;21.21;54.91
47220;BME280;32961;51.936;4.788;2023-06-10T01:20:37;101450.72;;;21.22;54.85
47220;BME280;32961;51.936;4.788;2023-06-10T01:23:08;101448.38;;;21.19;55.05
47220;BME280;32961;51.936;4.788;2023-06-10T01:25:38;101448.72;;;21.09;55.16
47220;BME280;32961;51.936;4.788;2023-06-10T01:28:11;101445.91;;;21.03;55.49
47220;BME280;32961;51.936;4.788;2023-06-10T01:30:41;101454.38;;;21.01;55.68
47220;BME280;32961;51.936;4.788;2023-06-10T01:33:14;101457.59;;;21.05;55.50
47220;BME280;32961;51.936;4.788;2023-06-10T01:35:47;101458.41;;;20.98;55.74
47220;BME280;32961;51.936;4.788;2023-06-10T01:38:19;101457.53;;;20.98;55.95
47220;BME280;32961;51.936;4.788;2023-06-10T01:40:48;101453.09;;;20.97;55.83
47220;BME280;32961;51.936;4.788;2023-06-10T01:43:17;101452.63;;;20.93;56.35
47220;BME280;32961;51.936;4.788;2023-06-10T01:45:44;101454.94;;;20.90;56.17
47220;BME280;32961;51.936;4.788;2023-06-10T01:48:12;101459.59;;;20.89;56.32
47220;BME280;32961;51.936;4.788;2023-06-10T01:50:40;101452.56;;;20.87;56.48
47220;BME280;32961;51.936;4.788;2023-06-10T01:53:08;101453.13;;;20.82;56.49
47220;BME280;32961;51.936;4.788;2023-06-10T01:55:37;101456.09;;;20.80;56.32
47220;BME280;32961;51.936;4.788;2023-06-10T01:58:05;101457.16;;;20.79;56.52
47220;BME280;32961;51.936;4.788;2023-06-10T02:00:33;101454.59;;;20.78;56.46
47220;BME280;32961;51.936;4.788;2023-06-10T02:03:01;101452.88;;;20.77;56.44
47220;BME280;32961;51.936;4.788;2023-06-10T02:05:29;101457.09;;;20.73;56.76
47220;BME280;32961;51.936;4.788;2023-06-10T02:07:56;101454.13;;;20.74;56.92
47220;BME280;32961;51.936;4.788;2023-06-10T02:10:24;101451.28;;;20.67;57.00
47220;BME280;32961;51.936;4.788;2023-06-10T02:12:54;101456.81;;;20.67;56.95
47220;BME280;32961;51.936;4.788;2023-06-10T02:15:21;101459.94;;;20.64;57.11
47220;BME280;32961;51.936;4.788;2023-06-10T02:17:49;101462.03;;;20.62;57.23
47220;BME280;32961;51.936;4.788;2023-06-10T02:20:17;101457.97;;;20.58;57.62
47220;BME280;32961;51.936;4.788;2023-06-10T02:22:45;101460.69;;;20.51;57.62
47220;BME280;32961;51.936;4.788;2023-06-10T02:25:13;101468.50;;;20.48;57.72
47220;BME280;32961;51.936;4.788;2023-06-10T02:27:41;101465.91;;;20.46;57.79
47220;BME280;32961;51.936;4.788;2023-06-10T02:30:11;101465.44;;;20.43;57.76
47220;BME280;32961;51.936;4.788;2023-06-10T02:32:40;101463.09;;;20.40;57.81
47220;BME280;32961;51.936;4.788;2023-06-10T02:35:08;101467.09;;;20.37;57.65
47220;BME280;32961;51.936;4.788;2023-06-10T02:37:38;101470.22;;;20.34;57.59
47220;BME280;32961;51.936;4.788;2023-06-10T02:40:07;101470.63;;;20.31;57.65
47220;BME280;32961;51.936;4.788;2023-06-10T02:42:36;101467.22;;;20.29;57.28
47220;BME280;32961;51.936;4.788;2023-06-10T02:45:05;101470.53;;;20.24;57.17
47220;BME280;32961;51.936;4.788;2023-06-10T02:47:37;101470.06;;;20.20;57.30
47220;BME280;32961;51.936;4.788;2023-06-10T02:50:06;101465.53;;;20.13;57.54
47220;BME280;32961;51.936;4.788;2023-06-10T02:52:33;101465.31;;;20.14;57.12
47220;BME280;32961;51.936;4.788;2023-06-10T02:55:01;101464.28;;;20.15;56.97
47220;BME280;32961;51.936;4.788;2023-06-10T02:57:29;101469.72;;;20.09;57.16
47220;BME280;32961;51.936;4.788;2023-06-10T02:59:58;101465.63;;;20.04;57.04
47220;BME280;32961;51.936;4.788;2023-06-10T03:02:26;101463.25;;;20.01;57.28
47220;BME280;32961;51.936;4.788;2023-06-10T03:04:56;101470.19;;;19.97;57.03
47220;BME280;32961;51.936;4.788;2023-06-10T03:07:24;101463.38;;;19.93;57.20
47220;BME280;32961;51.936;4.788;2023-06-10T03:09:52;101470.13;;;19.91;57.16
47220;BME280;32961;51.936;4.788;2023-06-10T03:12:20;101478.28;;;19.84;57.29
47220;BME280;32961;51.936;4.788;2023-06-10T03:14:48;101469.50;;;19.80;57.13
47220;BME280;32961;51.936;4.788;2023-06-10T03:17:16;101466.47;;;19.75;56.95
47220;BME280;32961;51.936;4.788;2023-06-10T03:19:43;101466.19;;;19.70;57.00
47220;BME280;32961;51.936;4.788;2023-06-10T03:22:14;101474.47;;;19.70;57.08
47220;BME280;32961;51.936;4.788;2023-06-10T03:24:42;101473.41;;;19.71;56.55
47220;BME280;32961;51.936;4.788;2023-06-10T03:27:12;101481.00;;;19.69;56.79
47220;BME280;32961;51.936;4.788;2023-06-10T03:29:41;101473.31;;;19.64;56.74
47220;BME280;32961;51.936;4.788;2023-06-10T03:32:09;101476.66;;;19.60;56.72
47220;BME280;32961;51.936;4.788;2023-06-10T03:34:37;101478.94;;;19.56;56.54
47220;BME280;32961;51.936;4.788;2023-06-10T03:37:05;101484.13;;;19.51;56.98
47220;BME280;32961;51.936;4.788;2023-06-10T03:39:34;101481.09;;;19.46;57.00
47220;BME280;32961;51.936;4.788;2023-06-10T03:42:02;101481.09;;;19.46;56.77
47220;BME280;32961;51.936;4.788;2023-06-10T03:44:30;101489.25;;;19.39;56.90
47220;BME280;32961;51.936;4.788;2023-06-10T03:46:58;101490.97;;;19.40;57.08
47220;BME280;32961;51.936;4.788;2023-06-10T03:49:26;101492.22;;;19.37;57.11
47220;BME280;32961;51.936;4.788;2023-06-10T03:51:56;101493.41;;;19.35;57.31
47220;BME280;32961;51.936;4.788;2023-06-10T03:54:23;101485.06;;;19.28;57.00
47220;BME280;32961;51.936;4.788;2023-06-10T03:56:53;101494.66;;;19.32;57.01
47220;BME280;32961;51.936;4.788;2023-06-10T03:59:20;101492.56;;;19.34;57.11
47220;BME280;32961;51.936;4.788;2023-06-10T04:01:48;101490.38;;;19.30;57.26
47220;BME280;32961;51.936;4.788;2023-06-10T04:04:16;101495.03;;;19.29;57.35
47220;BME280;32961;51.936;4.788;2023-06-10T04:06:44;101498.81;;;19.28;57.36
47220;BME280;32961;51.936;4.788;2023-06-10T04:09:12;101496.44;;;19.25;57.74
47220;BME280;32961;51.936;4.788;2023-06-10T04:11:40;101489.88;;;19.26;57.37
47220;BME280;32961;51.936;4.788;2023-06-10T04:14:09;101500.06;;;19.26;57.64
47220;BME280;32961;51.936;4.788;2023-06-10T04:16:37;101498.34;;;19.24;57.81
47220;BME280;32961;51.936;4.788;2023-06-10T04:19:05;101496.81;;;19.22;57.92
47220;BME280;32961;51.936;4.788;2023-06-10T04:21:33;101507.16;;;19.20;57.91
47220;BME280;32961;51.936;4.788;2023-06-10T04:24:03;101502.13;;;19.23;57.97
47220;BME280;32961;51.936;4.788;2023-06-10T04:26:31;101509.56;;;19.23;58.03
47220;BME280;32961;51.936;4.788;2023-06-10T04:28:58;101513.16;;;19.23;58.38
47220;BME280;32961;51.936;4.788;2023-06-10T04:31:28;101506.81;;;19.23;58.22
47220;BME280;32961;51.936;4.788;2023-06-10T04:33:55;101512.41;;;19.30;58.44
47220;BME280;32961;51.936;4.788;2023-06-10T04:36:23;101509.38;;;19.24;58.49
47220;BME280;32961;51.936;4.788;2023-06-10T04:38:51;101510.53;;;19.30;58.41
47220;BME280;32961;51.936;4.788;2023-06-10T04:41:19;101516.88;;;19.31;58.66
47220;BME280;32961;51.936;4.788;2023-06-10T04:43:48;101521.56;;;19.30;58.90
47220;BME280;32961;51.936;4.788;2023-06-10T04:46:16;101521.56;;;19.30;58.96
47220;BME280;32961;51.936;4.788;2023-06-10T04:48:45;101521.56;;;19.30;58.96
47220;BME280;32961;51.936;4.788;2023-06-10T04:51:14;101522.69;;;19.36;59.10
47220;BME280;32961;51.936;4.788;2023-06-10T04:53:43;101525.63;;;19.34;59.24
47220;BME280;32961;51.936;4.788;2023-06-10T04:56:11;101525.09;;;19.39;59.12
47220;BME280;32961;51.936;4.788;2023-06-10T04:58:39;101517.09;;;19.44;58.88
47220;BME280;32961;51.936;4.788;2023-06-10T05:01:06;101521.09;;;19.42;59.43
47220;BME280;32961;51.936;4.788;2023-06-10T05:03:34;101518.63;;;19.47;59.24
47220;BME280;32961;51.936;4.788;2023-06-10T05:06:04;101525.47;;;19.51;59.50
47220;BME280;32961;51.936;4.788;2023-06-10T05:08:31;101521.03;;;19.50;59.35
47220;BME280;32961;51.936;4.788;2023-06-10T05:10:59;101535.78;;;19.57;59.30
47220;BME280;32961;51.936;4.788;2023-06-10T05:13:27;101527.66;;;19.55;59.55
47220;BME280;32961;51.936;4.788;2023-06-10T05:15:55;101527.94;;;19.61;59.31
47220;BME280;32961;51.936;4.788;2023-06-10T05:18:23;101530.91;;;19.74;59.07
47220;BME280;32961;51.936;4.788;2023-06-10T05:20:50;101529.03;;;19.75;59.08
47220;BME280;32961;51.936;4.788;2023-06-10T05:23:21;101525.03;;;19.77;59.26
47220;BME280;32961;51.936;4.788;2023-06-10T05:25:49;101526.56;;;19.80;59.14
47220;BME280;32961;51.936;4.788;2023-06-10T05:28:17;101533.25;;;19.85;59.41
47220;BME280;32961;51.936;4.788;2023-06-10T05:30:46;101527.47;;;19.95;58.95
47220;BME280;32961;51.936;4.788;2023-06-10T05:33:14;101531.75;;;19.98;59.14
47220;BME280;32961;51.936;4.788;2023-06-10T05:35:42;101523.94;;;20.01;59.16
47220;BME280;32961;51.936;4.788;2023-06-10T05:38:09;101519.53;;;20.07;58.81
47220;BME280;32961;51.936;4.788;2023-06-10T05:40:39;101528.13;;;20.12;59.03
47220;BME280;32961;51.936;4.788;2023-06-10T05:43:06;101528.00;;;20.20;58.51
47220;BME280;32961;51.936;4.788;2023-06-10T05:45:36;101528.69;;;20.23;58.53
47220;BME280;32961;51.936;4.788;2023-06-10T05:48:04;101532.97;;;20.25;58.47
47220;BME280;32961;51.936;4.788;2023-06-10T05:50:33;101531.50;;;20.29;58.01
47220;BME280;32961;51.936;4.788;2023-06-10T05:53:05;101543.31;;;20.38;57.87
47220;BME280;32961;51.936;4.788;2023-06-10T05:55:34;101541.09;;;20.48;57.85
47220;BME280;32961;51.936;4.788;2023-06-10T05:58:04;101536.91;;;20.52;57.46
47220;BME280;32961;51.936;4.788;2023-06-10T06:00:31;101532.97;;;20.62;57.31
47220;BME280;32961;51.936;4.788;2023-06-10T06:03:02;101534.13;;;20.67;57.19
47220;BME280;32961;51.936;4.788;2023-06-10T06:05:30;101538.22;;;20.72;56.99
47220;BME280;32961;51.936;4.788;2023-06-10T06:08:01;101539.06;;;20.72;56.71
47220;BME280;32961;51.936;4.788;2023-06-10T06:10:29;101534.22;;;20.74;56.53
47220;BME280;32961;51.936;4.788;2023-06-10T06:12:57;101536.66;;;20.84;56.16
47220;BME280;32961;51.936;4.788;2023-06-10T06:15:27;101538.63;;;20.90;56.41
47220;BME280;32961;51.936;4.788;2023-06-10T06:17:55;101540.50;;;21.05;56.51
47220;BME280;32961;51.936;4.788;2023-06-10T06:20:23;101543.75;;;21.15;56.29
47220;BME280;32961;51.936;4.788;2023-06-10T06:22:51;101533.59;;;21.15;56.12
47220;BME280;32961;51.936;4.788;2023-06-10T06:25:18;101532.78;;;21.22;55.58
47220;BME280;32961;51.936;4.788;2023-06-10T06:27:46;101531.66;;;21.16;55.66
47220;BME280;32961;51.936;4.788;2023-06-10T06:30:14;101540.50;;;21.26;56.11
47220;BME280;32961;51.936;4.788;2023-06-10T06:32:44;101532.44;;;21.31;56.25
47220;BME280;32961;51.936;4.788;2023-06-10T06:35:12;101535.09;;;21.40;54.86
47220;BME280;32961;51.936;4.788;2023-06-10T06:37:40;101533.81;;;21.42;55.33
47220;BME280;32961;51.936;4.788;2023-06-10T06:40:09;101529.63;;;21.53;55.11
47220;BME280;32961;51.936;4.788;2023-06-10T06:42:37;101534.31;;;21.53;54.96
47220;BME280;32961;51.936;4.788;2023-06-10T06:45:05;101531.91;;;21.64;55.29
47220;BME280;32961;51.936;4.788;2023-06-10T06:47:34;101544.69;;;21.72;55.07
47220;BME280;32961;51.936;4.788;2023-06-10T06:50:04;101540.28;;;21.78;54.64
47220;BME280;32961;51.936;4.788;2023-06-10T06:52:31;101545.03;;;21.91;54.56
47220;BME280;32961;51.936;4.788;2023-06-10T06:54:59;101547.03;;;22.04;54.71
47220;BME280;32961;51.936;4.788;2023-06-10T06:57:27;101541.31;;;22.12;54.01
47220;BME280;32961;51.936;4.788;2023-06-10T06:59:55;101543.25;;;22.11;53.72
47220;BME280;32961;51.936;4.788;2023-06-10T07:02:23;101531.59;;;22.23;53.12
47220;BME280;32961;51.936;4.788;2023-06-10T07:04:51;101543.59;;;22.37;53.02
47220;BME280;32961;51.936;4.788;2023-06-10T07:07:23;101544.31;;;22.52;52.80
47220;BME280;32961;51.936;4.788;2023-06-10T07:09:52;101542.03;;;22.63;52.75
47220;BME280;32961;51.936;4.788;2023-06-10T07:12:20;101547.81;;;22.81;51.79
47220;BME280;32961;51.936;4.788;2023-06-10T07:14:50;101551.25;;;22.97;51.97
47220;BME280;32961;51.936;4.788;2023-06-10T07:17:18;101553.88;;;23.18;51.44
47220;BME280;32961;51.936;4.788;2023-06-10T07:19:46;101553.25;;;23.30;50.64
47220;BME280;32961;51.936;4.788;2023-06-10T07:22:14;101551.78;;;23.40;50.10
47220;BME280;32961;51.936;4.788;2023-06-10T07:24:43;101555.81;;;23.38;50.41
47220;BME280;32961;51.936;4.788;2023-06-10T07:27:11;101549.19;;;23.46;50.27
47220;BME280;32961;51.936;4.788;2023-06-10T07:29:39;101551.56;;;23.55;48.83
47220;BME280;32961;51.936;4.788;2023-06-10T07:32:08;101551.78;;;23.61;49.03
47220;BME280;32961;51.936;4.788;2023-06-10T07:34:35;101556.47;;;23.60;49.51
47220;BME280;32961;51.936;4.788;2023-06-10T07:37:04;101554.97;;;23.78;48.67
47220;BME280;32961;51.936;4.788;2023-06-10T07:39:32;101546.44;;;23.79;49.27
47220;BME280;32961;51.936;4.788;2023-06-10T07:42:01;101559.88;;;23.96;48.73
47220;BME280;32961;51.936;4.788;2023-06-10T07:44:29;101559.63;;;24.04;49.15
47220;BME280;32961;51.936;4.788;2023-06-10T07:46:57;101556.41;;;24.21;48.22
47220;BME280;32961;51.936;4.788;2023-06-10T07:49:25;101562.34;;;24.31;48.15
47220;BME280;32961;51.936;4.788;2023-06-10T07:51:54;101564.00;;;24.39;47.82
47220;BME280;32961;51.936;4.788;2023-06-10T07:54:22;101562.94;;;24.46;47.41
47220;BME280;32961;51.936;4.788;2023-06-10T07:56:53;101559.47;;;24.51;47.10
47220;BME280;32961;51.936;4.788;2023-06-10T07:59:22;101557.50;;;24.72;47.07
47220;BME280;32961;51.936;4.788;2023-06-10T08:01:53;101554.63;;;24.85;45.89
47220;BME280;32961;51.936;4.788;2023-06-10T08:04:21;101559.06;;;24.93;46.06
47220;BME280;32961;51.936;4.788;2023-06-10T08:06:49;101558.22;;;24.92;45.13
47220;BME280;32961;51.936;4.788;2023-06-10T08:09:17;101557.31;;;25.05;45.34
47220;BME280;32961;51.936;4.788;2023-06-10T08:11:46;101561.97;;;25.11;44.39
47220;BME280;32961;51.936;4.788;2023-06-10T08:14:15;101565.72;;;25.24;45.10
47220;BME280;32961;51.936;4.788;2023-06-10T08:16:44;101563.91;;;25.36;44.19
47220;BME280;32961;51.936;4.788;2023-06-10T08:19:12;101566.06;;;25.41;43.98
47220;BME280;32961;51.936;4.788;2023-06-10T08:21:40;101558.13;;;25.44;44.54
47220;BME280;32961;51.936;4.788;2023-06-10T08:24:09;101551.75;;;25.37;44.56
47220;BME280;32961;51.936;4.788;2023-06-10T08:26:38;101564.16;;;25.60;44.57
47220;BME280;32961;51.936;4.788;2023-06-10T08:29:06;101554.47;;;25.69;44.33
47220;BME280;32961;51.936;4.788;2023-06-10T08:31:34;101563.63;;;25.76;43.61
47220;BME280;32961;51.936;4.788;2023-06-10T08:34:03;101560.06;;;25.88;43.71
47220;BME280;32961;51.936;4.788;2023-06-10T08:36:31;101555.00;;;26.03;43.26
47220;BME280;32961;51.936;4.788;2023-06-10T08:38:59;101568.78;;;26.17;42.91
47220;BME280;32961;51.936;4.788;2023-06-10T08:41:28;101566.31;;;26.27;42.19
47220;BME280;32961;51.936;4.788;2023-06-10T08:44:04;101569.53;;;26.24;41.78
47220;BME280;32961;51.936;4.788;2023-06-10T08:46:36;101565.69;;;26.25;41.65
47220;BME280;32961;51.936;4.788;2023-06-10T08:49:06;101559.94;;;26.38;41.73
47220;BME280;32961;51.936;4.788;2023-06-10T08:51:35;101560.41;;;26.54;40.93
47220;BME280;32961;51.936;4.788;2023-06-10T08:54:06;101562.97;;;26.55;40.88
47220;BME280;32961;51.936;4.788;2023-06-10T08:56:39;101568.59;;;26.67;40.02
47220;BME280;32961;51.936;4.788;2023-06-10T08:59:08;101567.84;;;26.60;40.04
47220;BME280;32961;51.936;4.788;2023-06-10T09:01:36;101564.28;;;26.53;40.33
47220;BME280;32961;51.936;4.788;2023-06-10T09:04:07;101559.47;;;26.60;40.37
47220;BME280;32961;51.936;4.788;2023-06-10T09:06:35;101559.91;;;26.75;40.48
47220;BME280;32961;51.936;4.788;2023-06-10T09:09:05;101561.81;;;26.94;40.92
47220;BME280;32961;51.936;4.788;2023-06-10T09:11:33;101558.97;;;27.12;39.88
47220;BME280;32961;51.936;4.788;2023-06-10T09:14:01;101557.63;;;27.15;39.62
47220;BME280;32961;51.936;4.788;2023-06-10T09:16:30;101567.38;;;27.24;40.73
47220;BME280;32961;51.936;4.788;2023-06-10T09:18:58;101563.50;;;27.25;39.41
47220;BME280;32961;51.936;4.788;2023-06-10T09:21:28;101557.78;;;27.32;40.00
47220;BME280;32961;51.936;4.788;2023-06-10T09:23:56;101562.66;;;27.36;38.75
47220;BME280;32961;51.936;4.788;2023-06-10T09:26:28;101573.81;;;27.36;38.79
47220;BME280;32961;51.936;4.788;2023-06-10T09:29:02;101563.56;;;27.49;38.77
47220;BME280;32961;51.936;4.788;2023-06-10T09:31:30;101554.22;;;27.55;38.84
47220;BME280;32961;51.936;4.788;2023-06-10T09:34:09;101558.84;;;27.61;38.60
47220;BME280;32961;51.936;4.788;2023-06-10T09:36:39;101561.63;;;27.61;39.46
47220;BME280;32961;51.936;4.788;2023-06-10T09:39:13;101563.22;;;27.69;37.24
47220;BME280;32961;51.936;4.788;2023-06-10T09:41:43;101559.47;;;27.75;37.61
47220;BME280;32961;51.936;4.788;2023-06-10T09:44:12;101564.91;;;27.82;38.35
47220;BME280;32961;51.936;4.788;2023-06-10T09:46:41;101571.59;;;27.93;38.24
47220;BME280;32961;51.936;4.788;2023-06-10T09:49:10;101578.16;;;27.98;38.02
47220;BME280;32961;51.936;4.788;2023-06-10T09:51:49;101566.47;;;28.01;37.66
47220;BME280;32961;51.936;4.788;2023-06-10T09:54:17;101562.59;;;28.02;37.44
47220;BME280;32961;51.936;4.788;2023-06-10T09:56:47;101562.75;;;28.20;38.13
47220;BME280;32961;51.936;4.788;2023-06-10T09:59:15;101566.38;;;28.20;36.61
47220;BME280;32961;51.936;4.788;2023-06-10T10:01:43;101564.78;;;28.24;37.31
47220;BME280;32961;51.936;4.788;2023-06-10T10:04:10;101561.13;;;28.36;35.98
47220;BME280;32961;51.936;4.788;2023-06-10T10:06:40;101556.81;;;28.45;36.75
47220;BME280;32961;51.936;4.788;2023-06-10T10:09:08;101555.88;;;28.51;36.91
47220;BME280;32961;51.936;4.788;2023-06-10T10:11:36;101557.06;;;28.55;35.79
47220;BME280;32961;51.936;4.788;2023-06-10T10:14:05;101554.44;;;28.65;37.03
47220;BME280;32961;51.936;4.788;2023-06-10T10:16:37;101542.91;;;28.74;36.23
47220;BME280;32961;51.936;4.788;2023-06-10T10:19:10;101544.56;;;28.87;35.19
47220;BME280;32961;51.936;4.788;2023-06-10T10:21:46;101546.59;;;28.91;35.41
47220;BME280;32961;51.936;4.788;2023-06-10T10:24:19;101542.69;;;28.92;32.87
47220;BME280;32961;51.936;4.788;2023-06-10T10:26:50;101542.78;;;28.97;33.69
47220;BME280;32961;51.936;4.788;2023-06-10T10:29:22;101538.66;;;29.17;33.49
47220;BME280;32961;51.936;4.788;2023-06-10T10:31:51;101541.03;;;29.25;32.13
47220;BME280;32961;51.936;4.788;2023-06-10T10:34:24;101544.38;;;29.22;33.22
47220;BME280;32961;51.936;4.788;2023-06-10T10:36:57;101551.63;;;29.23;33.87
47220;BME280;32961;51.936;4.788;2023-06-10T10:39:25;101535.56;;;29.30;33.83
47220;BME280;32961;51.936;4.788;2023-06-10T10:41:55;101534.72;;;29.47;33.89
47220;BME280;32961;51.936;4.788;2023-06-10T10:44:24;101530.47;;;29.61;34.04
47220;BME280;32961;51.936;4.788;2023-06-10T10:46:53;101526.47;;;29.74;32.93
47220;BME280;32961;51.936;4.788;2023-06-10T10:49:22;101536.50;;;29.70;32.64
47220;BME280;32961;51.936;4.788;2023-06-10T10:51:57;101528.44;;;29.74;32.13
47220;BME280;32961;51.936;4.788;2023-06-10T10:54:29;101527.19;;;29.87;32.54
47220;BME280;32961;51.936;4.788;2023-06-10T10:57:11;101529.59;;;29.95;31.52
47220;BME280;32961;51.936;4.788;2023-06-10T10:59:44;101522.03;;;29.96;30.20
47220;BME280;32961;51.936;4.788;2023-06-10T11:02:15;101520.41;;;30.00;31.13
47220;BME280;32961;51.936;4.788;2023-06-10T11:04:46;101527.41;;;30.19;30.72
47220;BME280;32961;51.936;4.788;2023-06-10T11:07:20;101519.31;;;30.23;29.07
47220;BME280;32961;51.936;4.788;2023-06-10T11:09:58;101530.06;;;30.09;30.17
47220;BME280;32961;51.936;4.788;2023-06-10T11:12:41;101518.44;;;30.00;29.89
47220;BME280;32961;51.936;4.788;2023-06-10T11:15:09;101508.13;;;30.01;30.17
47220;BME280;32961;51.936;4.788;2023-06-10T11:17:37;101522.13;;;30.23;29.77
47220;BME280;32961;51.936;4.788;2023-06-10T11:20:06;101518.66;;;30.38;29.17
47220;BME280;32961;51.936;4.788;2023-06-10T11:22:58;101514.63;;;30.51;28.78
47220;BME280;32961;51.936;4.788;2023-06-10T11:25:38;101515.81;;;30.55;29.45
47220;BME280;32961;51.936;4.788;2023-06-10T11:28:17;101511.63;;;30.35;29.01
47220;BME280;32961;51.936;4.788;2023-06-10T11:30:45;101508.09;;;30.45;29.13
47220;BME280;32961;51.936;4.788;2023-06-10T11:33:16;101498.94;;;30.50;28.90
47220;BME280;32961;51.936;4.788;2023-06-10T11:35:44;101504.31;;;30.56;28.05
47220;BME280;32961;51.936;4.788;2023-06-10T11:38:13;101502.44;;;30.62;27.85
47220;BME280;32961;51.936;4.788;2023-06-10T11:40:46;101493.28;;;30.72;28.39
47220;BME280;32961;51.936;4.788;2023-06-10T11:43:16;101500.72;;;30.88;28.41
47220;BME280;32961;51.936;4.788;2023-06-10T11:45:45;101500.13;;;30.86;28.34
47220;BME280;32961;51.936;4.788;2023-06-10T11:48:13;101499.84;;;30.83;28.84
47220;BME280;32961;51.936;4.788;2023-06-10T11:50:41;101496.56;;;30.96;28.42
47220;BME280;32961;51.936;4.788;2023-06-10T11:53:09;101500.88;;;31.04;28.34
47220;BME280;32961;51.936;4.788;2023-06-10T11:55:43;101489.91;;;31.02;28.60
47220;BME280;32961;51.936;4.788;2023-06-10T11:58:14;101493.63;;;31.08;28.68
47220;BME280;32961;51.936;4.788;2023-06-10T12:00:46;101500.97;;;31.14;27.70
47220;BME280;32961;51.936;4.788;2023-06-10T12:03:14;101497.19;;;31.03;27.75
47220;BME280;32961;51.936;4.788;2023-06-10T12:05:55;101486.41;;;30.90;27.63
47220;BME280;32961;51.936;4.788;2023-06-10T12:08:23;101485.00;;;30.87;28.23
47220;BME280;32961;51.936;4.788;2023-06-10T12:10:52;101488.53;;;31.05;28.14
47220;BME280;32961;51.936;4.788;2023-06-10T12:13:21;101484.25;;;30.97;27.18
47220;BME280;32961;51.936;4.788;2023-06-10T12:15:49;101487.28;;;30.91;27.32
47220;BME280;32961;51.936;4.788;2023-06-10T12:18:18;101476.56;;;30.87;27.71
47220;BME280;32961;51.936;4.788;2023-06-10T12:20:46;101474.50;;;31.05;27.36
47220;BME280;32961;51.936;4.788;2023-06-10T12:23:15;101477.72;;;31.19;27.09
47220;BME280;32961;51.936;4.788;2023-06-10T12:25:49;101469.06;;;31.26;26.89
47220;BME280;32961;51.936;4.788;2023-06-10T12:28:22;101474.47;;;31.32;27.36
47220;BME280;32961;51.936;4.788;2023-06-10T12:30:51;101473.69;;;31.42;27.61
47220;BME280;32961;51.936;4.788;2023-06-10T12:33:20;101475.47;;;31.59;27.25
47220;BME280;32961;51.936;4.788;2023-06-10T12:35:48;101479.81;;;31.72;25.56
47220;BME280;32961;51.936;4.788;2023-06-10T12:38:21;101488.06;;;31.89;25.46
47220;BME280;32961;51.936;4.788;2023-06-10T12:40:51;101466.69;;;31.93;25.59
47220;BME280;32961;51.936;4.788;2023-06-10T12:43:23;101474.91;;;32.05;24.58
47220;BME280;32961;51.936;4.788;2023-06-10T12:45:51;101476.88;;;32.04;24.94
47220;BME280;32961;51.936;4.788;2023-06-10T12:48:21;101481.69;;;32.14;24.90
47220;BME280;32961;51.936;4.788;2023-06-10T12:50:51;101487.88;;;32.11;24.25
47220;BME280;32961;51.936;4.788;2023-06-10T12:53:20;101481.94;;;32.07;24.28
47220;BME280;32961;51.936;4.788;2023-06-10T12:55:49;101480.84;;;32.13;24.41
47220;BME280;32961;51.936;4.788;2023-06-10T12:58:19;101471.00;;;32.16;24.00
47220;BME280;32961;51.936;4.788;2023-06-10T13:00:48;101484.06;;;32.32;24.19